<?xml version="1.0" encoding="UTF-8" standalone="no" ?><gpx xmlns="http://www.topografix.com/GPX/1/1" xmlns:gpxx="http://www.garmin.com/xmlschemas/GpxExtensions/v3" xmlns:gpxtpx="http://www.garmin.com/xmlschemas/TrackPointExtension/v1" creator="Foretrex 301" version="1.1" xmlns:xsi="http://www.w3.org/2001/XMLSchema-instance" xsi:schemaLocation="http://www.topografix.com/GPX/1/1 http://www.topografix.com/GPX/1/1/gpx.xsd http://www.garmin.com/xmlschemas/GpxExtensions/v3 http://www.garmin.com/xmlschemas/GpxExtensions/v3/GpxExtensionsv3.xsd"><metadata><link href="http://www.garmin.com"><text>Garmin International</text></link><time>2010-09-15T15:41:10Z</time></metadata><trk><name>ACTIVE LOG: 15 SEP 2010 09:58</name><trkseg><trkpt lat="51.902487" lon="-1.648192"><ele>126.07</ele><time>2010-09-15T08:58:35Z</time></trkpt><trkpt lat="51.902494" lon="-1.648187"><ele>109.25</ele><time>2010-09-15T08:58:50Z</time></trkpt><trkpt lat="51.902525" lon="-1.648238"><ele>109.73</ele><time>2010-09-15T08:59:14Z</time></trkpt><trkpt lat="51.902597" lon="-1.648214"><ele>109.73</ele><time>2010-09-15T08:59:29Z</time></trkpt><trkpt lat="51.902639" lon="-1.648178"><ele>110.21</ele><time>2010-09-15T08:59:36Z</time></trkpt><trkpt lat="51.902679" lon="-1.648163"><ele>110.69</ele><time>2010-09-15T08:59:40Z</time></trkpt><trkpt lat="51.902810" lon="-1.647994"><ele>112.61</ele><time>2010-09-15T08:59:58Z</time></trkpt><trkpt lat="51.902867" lon="-1.647840"><ele>111.17</ele><time>2010-09-15T09:00:12Z</time></trkpt><trkpt lat="51.902894" lon="-1.647818"><ele>111.17</ele><time>2010-09-15T09:00:16Z</time></trkpt><trkpt lat="51.902910" lon="-1.647732"><ele>111.17</ele><time>2010-09-15T09:00:21Z</time></trkpt><trkpt lat="51.902913" lon="-1.647679"><ele>110.69</ele><time>2010-09-15T09:00:24Z</time></trkpt><trkpt lat="51.902931" lon="-1.647640"><ele>110.69</ele><time>2010-09-15T09:00:27Z</time></trkpt><trkpt lat="51.902948" lon="-1.647591"><ele>110.69</ele><time>2010-09-15T09:00:31Z</time></trkpt><trkpt lat="51.903176" lon="-1.647351"><ele>109.73</ele><time>2010-09-15T09:00:54Z</time></trkpt><trkpt lat="51.903294" lon="-1.647222"><ele>110.21</ele><time>2010-09-15T09:01:06Z</time></trkpt><trkpt lat="51.903496" lon="-1.647281"><ele>111.65</ele><time>2010-09-15T09:01:24Z</time></trkpt><trkpt lat="51.903633" lon="-1.647444"><ele>112.61</ele><time>2010-09-15T09:01:41Z</time></trkpt><trkpt lat="51.903770" lon="-1.647640"><ele>113.57</ele><time>2010-09-15T09:02:00Z</time></trkpt><trkpt lat="51.903950" lon="-1.647811"><ele>113.09</ele><time>2010-09-15T09:02:19Z</time></trkpt><trkpt lat="51.904121" lon="-1.648000"><ele>114.05</ele><time>2010-09-15T09:02:38Z</time></trkpt><trkpt lat="51.904269" lon="-1.648185"><ele>114.53</ele><time>2010-09-15T09:02:54Z</time></trkpt><trkpt lat="51.904455" lon="-1.648407"><ele>115.01</ele><time>2010-09-15T09:03:13Z</time></trkpt><trkpt lat="51.904642" lon="-1.648634"><ele>115.50</ele><time>2010-09-15T09:03:32Z</time></trkpt><trkpt lat="51.904859" lon="-1.648893"><ele>115.01</ele><time>2010-09-15T09:03:53Z</time></trkpt><trkpt lat="51.905046" lon="-1.649152"><ele>114.05</ele><time>2010-09-15T09:04:13Z</time></trkpt><trkpt lat="51.905229" lon="-1.649427"><ele>115.01</ele><time>2010-09-15T09:04:34Z</time></trkpt><trkpt lat="51.905330" lon="-1.649576"><ele>114.53</ele><time>2010-09-15T09:04:51Z</time></trkpt><trkpt lat="51.905477" lon="-1.649831"><ele>115.01</ele><time>2010-09-15T09:05:10Z</time></trkpt><trkpt lat="51.905601" lon="-1.650110"><ele>115.01</ele><time>2010-09-15T09:05:28Z</time></trkpt><trkpt lat="51.905642" lon="-1.650226"><ele>115.50</ele><time>2010-09-15T09:05:45Z</time></trkpt><trkpt lat="51.905662" lon="-1.650373"><ele>115.50</ele><time>2010-09-15T09:06:01Z</time></trkpt><trkpt lat="51.905726" lon="-1.650779"><ele>115.01</ele><time>2010-09-15T09:06:22Z</time></trkpt><trkpt lat="51.905784" lon="-1.651205"><ele>115.50</ele><time>2010-09-15T09:06:44Z</time></trkpt><trkpt lat="51.905851" lon="-1.651655"><ele>114.53</ele><time>2010-09-15T09:07:07Z</time></trkpt><trkpt lat="51.905913" lon="-1.652138"><ele>113.57</ele><time>2010-09-15T09:07:32Z</time></trkpt><trkpt lat="51.905979" lon="-1.652461"><ele>111.17</ele><time>2010-09-15T09:07:48Z</time></trkpt><trkpt lat="51.906016" lon="-1.652694"><ele>114.53</ele><time>2010-09-15T09:08:06Z</time></trkpt><trkpt lat="51.906007" lon="-1.652700"><ele>114.53</ele><time>2010-09-15T09:08:09Z</time></trkpt><trkpt lat="51.905997" lon="-1.652773"><ele>115.01</ele><time>2010-09-15T09:08:13Z</time></trkpt><trkpt lat="51.906050" lon="-1.653115"><ele>114.53</ele><time>2010-09-15T09:08:31Z</time></trkpt><trkpt lat="51.906010" lon="-1.653107"><ele>113.57</ele><time>2010-09-15T09:08:44Z</time></trkpt><trkpt lat="51.905910" lon="-1.653305"><ele>113.57</ele><time>2010-09-15T09:08:58Z</time></trkpt><trkpt lat="51.905753" lon="-1.653561"><ele>113.09</ele><time>2010-09-15T09:09:19Z</time></trkpt><trkpt lat="51.905616" lon="-1.653811"><ele>112.61</ele><time>2010-09-15T09:09:36Z</time></trkpt><trkpt lat="51.905492" lon="-1.654077"><ele>113.57</ele><time>2010-09-15T09:09:54Z</time></trkpt><trkpt lat="51.905349" lon="-1.654438"><ele>113.09</ele><time>2010-09-15T09:10:16Z</time></trkpt><trkpt lat="51.905232" lon="-1.654764"><ele>115.01</ele><time>2010-09-15T09:10:36Z</time></trkpt><trkpt lat="51.905105" lon="-1.655049"><ele>115.50</ele><time>2010-09-15T09:10:56Z</time></trkpt><trkpt lat="51.905005" lon="-1.655327"><ele>115.50</ele><time>2010-09-15T09:11:14Z</time></trkpt><trkpt lat="51.904888" lon="-1.655648"><ele>115.01</ele><time>2010-09-15T09:11:34Z</time></trkpt><trkpt lat="51.904787" lon="-1.655961"><ele>115.98</ele><time>2010-09-15T09:11:53Z</time></trkpt><trkpt lat="51.904694" lon="-1.656277"><ele>115.98</ele><time>2010-09-15T09:12:12Z</time></trkpt><trkpt lat="51.904630" lon="-1.656587"><ele>115.50</ele><time>2010-09-15T09:12:30Z</time></trkpt><trkpt lat="51.904535" lon="-1.656878"><ele>115.50</ele><time>2010-09-15T09:12:49Z</time></trkpt><trkpt lat="51.904449" lon="-1.657167"><ele>115.98</ele><time>2010-09-15T09:13:07Z</time></trkpt><trkpt lat="51.904358" lon="-1.657458"><ele>116.94</ele><time>2010-09-15T09:13:25Z</time></trkpt><trkpt lat="51.904268" lon="-1.657715"><ele>119.82</ele><time>2010-09-15T09:13:42Z</time></trkpt><trkpt lat="51.904240" lon="-1.657850"><ele>119.82</ele><time>2010-09-15T09:13:54Z</time></trkpt><trkpt lat="51.904229" lon="-1.657857"><ele>119.82</ele><time>2010-09-15T09:13:56Z</time></trkpt><trkpt lat="51.904156" lon="-1.657977"><ele>121.26</ele><time>2010-09-15T09:14:06Z</time></trkpt><trkpt lat="51.904108" lon="-1.658174"><ele>123.19</ele><time>2010-09-15T09:14:20Z</time></trkpt><trkpt lat="51.904074" lon="-1.658377"><ele>124.15</ele><time>2010-09-15T09:14:34Z</time></trkpt><trkpt lat="51.904026" lon="-1.658640"><ele>124.63</ele><time>2010-09-15T09:14:51Z</time></trkpt><trkpt lat="51.903941" lon="-1.658980"><ele>127.51</ele><time>2010-09-15T09:15:10Z</time></trkpt><trkpt lat="51.903881" lon="-1.659286"><ele>128.47</ele><time>2010-09-15T09:15:28Z</time></trkpt><trkpt lat="51.903836" lon="-1.659624"><ele>127.51</ele><time>2010-09-15T09:15:48Z</time></trkpt><trkpt lat="51.903784" lon="-1.659895"><ele>127.51</ele><time>2010-09-15T09:16:05Z</time></trkpt><trkpt lat="51.903729" lon="-1.660214"><ele>127.51</ele><time>2010-09-15T09:16:25Z</time></trkpt><trkpt lat="51.903680" lon="-1.660498"><ele>127.51</ele><time>2010-09-15T09:16:43Z</time></trkpt><trkpt lat="51.903625" lon="-1.660810"><ele>127.03</ele><time>2010-09-15T09:17:02Z</time></trkpt><trkpt lat="51.903575" lon="-1.661094"><ele>126.55</ele><time>2010-09-15T09:17:19Z</time></trkpt><trkpt lat="51.903523" lon="-1.661386"><ele>126.55</ele><time>2010-09-15T09:17:37Z</time></trkpt><trkpt lat="51.903484" lon="-1.661664"><ele>126.55</ele><time>2010-09-15T09:17:55Z</time></trkpt><trkpt lat="51.903428" lon="-1.661932"><ele>127.03</ele><time>2010-09-15T09:18:12Z</time></trkpt><trkpt lat="51.903390" lon="-1.662160"><ele>127.03</ele><time>2010-09-15T09:18:27Z</time></trkpt><trkpt lat="51.903319" lon="-1.662403"><ele>127.51</ele><time>2010-09-15T09:18:43Z</time></trkpt><trkpt lat="51.903258" lon="-1.662620"><ele>127.99</ele><time>2010-09-15T09:18:58Z</time></trkpt><trkpt lat="51.903263" lon="-1.662689"><ele>127.51</ele><time>2010-09-15T09:19:14Z</time></trkpt><trkpt lat="51.903262" lon="-1.662700"><ele>127.99</ele><time>2010-09-15T09:19:24Z</time></trkpt><trkpt lat="51.903394" lon="-1.662825"><ele>128.47</ele><time>2010-09-15T09:19:40Z</time></trkpt><trkpt lat="51.903602" lon="-1.662907"><ele>129.43</ele><time>2010-09-15T09:19:57Z</time></trkpt><trkpt lat="51.903815" lon="-1.662967"><ele>127.99</ele><time>2010-09-15T09:20:17Z</time></trkpt><trkpt lat="51.903944" lon="-1.663001"><ele>126.07</ele><time>2010-09-15T09:20:32Z</time></trkpt><trkpt lat="51.904106" lon="-1.663059"><ele>126.55</ele><time>2010-09-15T09:20:49Z</time></trkpt><trkpt lat="51.904339" lon="-1.663107"><ele>127.03</ele><time>2010-09-15T09:21:10Z</time></trkpt><trkpt lat="51.904413" lon="-1.663197"><ele>125.11</ele><time>2010-09-15T09:21:25Z</time></trkpt><trkpt lat="51.904421" lon="-1.663255"><ele>124.63</ele><time>2010-09-15T09:21:45Z</time></trkpt><trkpt lat="51.904370" lon="-1.663542"><ele>125.11</ele><time>2010-09-15T09:22:04Z</time></trkpt><trkpt lat="51.904345" lon="-1.663787"><ele>125.11</ele><time>2010-09-15T09:22:18Z</time></trkpt><trkpt lat="51.904326" lon="-1.664011"><ele>126.07</ele><time>2010-09-15T09:22:32Z</time></trkpt><trkpt lat="51.904324" lon="-1.664201"><ele>127.03</ele><time>2010-09-15T09:22:46Z</time></trkpt><trkpt lat="51.904331" lon="-1.664253"><ele>127.03</ele><time>2010-09-15T09:23:00Z</time></trkpt><trkpt lat="51.904307" lon="-1.664498"><ele>126.55</ele><time>2010-09-15T09:23:15Z</time></trkpt><trkpt lat="51.904319" lon="-1.664791"><ele>127.03</ele><time>2010-09-15T09:23:31Z</time></trkpt><trkpt lat="51.904331" lon="-1.665066"><ele>127.03</ele><time>2010-09-15T09:23:46Z</time></trkpt><trkpt lat="51.904306" lon="-1.665357"><ele>128.47</ele><time>2010-09-15T09:24:03Z</time></trkpt><trkpt lat="51.904264" lon="-1.665678"><ele>128.95</ele><time>2010-09-15T09:24:21Z</time></trkpt><trkpt lat="51.904188" lon="-1.665951"><ele>131.36</ele><time>2010-09-15T09:24:38Z</time></trkpt><trkpt lat="51.904156" lon="-1.666265"><ele>134.24</ele><time>2010-09-15T09:24:57Z</time></trkpt><trkpt lat="51.904159" lon="-1.666352"><ele>133.76</ele><time>2010-09-15T09:25:11Z</time></trkpt><trkpt lat="51.904143" lon="-1.666381"><ele>132.80</ele><time>2010-09-15T09:25:24Z</time></trkpt><trkpt lat="51.904129" lon="-1.666465"><ele>132.80</ele><time>2010-09-15T09:25:32Z</time></trkpt><trkpt lat="51.904115" lon="-1.666643"><ele>132.80</ele><time>2010-09-15T09:25:44Z</time></trkpt><trkpt lat="51.904117" lon="-1.666666"><ele>132.32</ele><time>2010-09-15T09:25:46Z</time></trkpt><trkpt lat="51.904056" lon="-1.666960"><ele>133.28</ele><time>2010-09-15T09:26:05Z</time></trkpt><trkpt lat="51.904005" lon="-1.667282"><ele>133.76</ele><time>2010-09-15T09:26:24Z</time></trkpt><trkpt lat="51.903957" lon="-1.667585"><ele>135.20</ele><time>2010-09-15T09:26:42Z</time></trkpt><trkpt lat="51.903937" lon="-1.667874"><ele>134.24</ele><time>2010-09-15T09:26:58Z</time></trkpt><trkpt lat="51.903906" lon="-1.668248"><ele>134.24</ele><time>2010-09-15T09:27:18Z</time></trkpt><trkpt lat="51.903877" lon="-1.668521"><ele>133.76</ele><time>2010-09-15T09:27:34Z</time></trkpt><trkpt lat="51.903842" lon="-1.668805"><ele>133.28</ele><time>2010-09-15T09:27:50Z</time></trkpt><trkpt lat="51.903800" lon="-1.669105"><ele>132.32</ele><time>2010-09-15T09:28:08Z</time></trkpt><trkpt lat="51.903769" lon="-1.669313"><ele>132.32</ele><time>2010-09-15T09:28:22Z</time></trkpt><trkpt lat="51.903778" lon="-1.669419"><ele>131.84</ele><time>2010-09-15T09:28:36Z</time></trkpt><trkpt lat="51.903752" lon="-1.669524"><ele>130.88</ele><time>2010-09-15T09:29:06Z</time></trkpt><trkpt lat="51.903735" lon="-1.669559"><ele>129.43</ele><time>2010-09-15T09:29:17Z</time></trkpt><trkpt lat="51.903705" lon="-1.669798"><ele>130.40</ele><time>2010-09-15T09:29:31Z</time></trkpt><trkpt lat="51.903680" lon="-1.670180"><ele>130.40</ele><time>2010-09-15T09:29:49Z</time></trkpt><trkpt lat="51.903669" lon="-1.670577"><ele>130.40</ele><time>2010-09-15T09:30:08Z</time></trkpt><trkpt lat="51.903642" lon="-1.670954"><ele>130.40</ele><time>2010-09-15T09:30:26Z</time></trkpt><trkpt lat="51.903643" lon="-1.671340"><ele>131.36</ele><time>2010-09-15T09:30:46Z</time></trkpt><trkpt lat="51.903656" lon="-1.671704"><ele>130.88</ele><time>2010-09-15T09:31:04Z</time></trkpt><trkpt lat="51.903658" lon="-1.671823"><ele>130.40</ele><time>2010-09-15T09:31:24Z</time></trkpt><trkpt lat="51.903660" lon="-1.671860"><ele>130.88</ele><time>2010-09-15T09:31:28Z</time></trkpt><trkpt lat="51.903618" lon="-1.672072"><ele>130.40</ele><time>2010-09-15T09:31:43Z</time></trkpt><trkpt lat="51.903589" lon="-1.672311"><ele>130.40</ele><time>2010-09-15T09:31:58Z</time></trkpt><trkpt lat="51.903572" lon="-1.672502"><ele>129.43</ele><time>2010-09-15T09:32:10Z</time></trkpt><trkpt lat="51.903569" lon="-1.672804"><ele>126.55</ele><time>2010-09-15T09:32:29Z</time></trkpt><trkpt lat="51.903542" lon="-1.673047"><ele>127.99</ele><time>2010-09-15T09:32:47Z</time></trkpt><trkpt lat="51.903508" lon="-1.673359"><ele>128.95</ele><time>2010-09-15T09:33:06Z</time></trkpt><trkpt lat="51.903493" lon="-1.673539"><ele>129.43</ele><time>2010-09-15T09:33:22Z</time></trkpt><trkpt lat="51.903453" lon="-1.673843"><ele>129.92</ele><time>2010-09-15T09:33:42Z</time></trkpt><trkpt lat="51.903419" lon="-1.674104"><ele>129.92</ele><time>2010-09-15T09:33:59Z</time></trkpt><trkpt lat="51.903362" lon="-1.674374"><ele>128.47</ele><time>2010-09-15T09:34:17Z</time></trkpt><trkpt lat="51.903269" lon="-1.674550"><ele>128.47</ele><time>2010-09-15T09:34:33Z</time></trkpt><trkpt lat="51.903267" lon="-1.674555"><ele>128.47</ele><time>2010-09-15T09:34:34Z</time></trkpt><trkpt lat="51.903249" lon="-1.674606"><ele>128.47</ele><time>2010-09-15T09:34:39Z</time></trkpt><trkpt lat="51.903073" lon="-1.674654"><ele>127.99</ele><time>2010-09-15T09:34:57Z</time></trkpt><trkpt lat="51.903047" lon="-1.674713"><ele>127.51</ele><time>2010-09-15T09:35:01Z</time></trkpt><trkpt lat="51.903004" lon="-1.674940"><ele>126.55</ele><time>2010-09-15T09:35:16Z</time></trkpt><trkpt lat="51.902930" lon="-1.675333"><ele>125.11</ele><time>2010-09-15T09:35:37Z</time></trkpt><trkpt lat="51.902867" lon="-1.675653"><ele>124.63</ele><time>2010-09-15T09:35:54Z</time></trkpt><trkpt lat="51.902817" lon="-1.675971"><ele>125.59</ele><time>2010-09-15T09:36:12Z</time></trkpt><trkpt lat="51.902771" lon="-1.676324"><ele>126.07</ele><time>2010-09-15T09:36:31Z</time></trkpt><trkpt lat="51.902731" lon="-1.676534"><ele>126.07</ele><time>2010-09-15T09:36:44Z</time></trkpt><trkpt lat="51.902674" lon="-1.676867"><ele>126.55</ele><time>2010-09-15T09:37:04Z</time></trkpt><trkpt lat="51.902638" lon="-1.677063"><ele>127.51</ele><time>2010-09-15T09:37:18Z</time></trkpt><trkpt lat="51.902637" lon="-1.677078"><ele>127.51</ele><time>2010-09-15T09:37:19Z</time></trkpt><trkpt lat="51.902586" lon="-1.677340"><ele>127.03</ele><time>2010-09-15T09:37:35Z</time></trkpt><trkpt lat="51.902521" lon="-1.677607"><ele>127.51</ele><time>2010-09-15T09:37:52Z</time></trkpt><trkpt lat="51.902457" lon="-1.677900"><ele>128.95</ele><time>2010-09-15T09:38:10Z</time></trkpt><trkpt lat="51.902440" lon="-1.678014"><ele>131.36</ele><time>2010-09-15T09:38:17Z</time></trkpt><trkpt lat="51.902436" lon="-1.678047"><ele>131.84</ele><time>2010-09-15T09:38:19Z</time></trkpt><trkpt lat="51.902402" lon="-1.678334"><ele>132.80</ele><time>2010-09-15T09:38:37Z</time></trkpt><trkpt lat="51.902368" lon="-1.678638"><ele>134.24</ele><time>2010-09-15T09:38:54Z</time></trkpt><trkpt lat="51.902345" lon="-1.678889"><ele>135.68</ele><time>2010-09-15T09:39:09Z</time></trkpt><trkpt lat="51.902329" lon="-1.679029"><ele>135.20</ele><time>2010-09-15T09:39:18Z</time></trkpt><trkpt lat="51.902303" lon="-1.679271"><ele>132.32</ele><time>2010-09-15T09:39:33Z</time></trkpt><trkpt lat="51.902277" lon="-1.679553"><ele>131.84</ele><time>2010-09-15T09:39:50Z</time></trkpt><trkpt lat="51.902268" lon="-1.679833"><ele>131.84</ele><time>2010-09-15T09:40:06Z</time></trkpt><trkpt lat="51.902253" lon="-1.680163"><ele>128.47</ele><time>2010-09-15T09:40:23Z</time></trkpt><trkpt lat="51.902242" lon="-1.680468"><ele>130.40</ele><time>2010-09-15T09:40:42Z</time></trkpt><trkpt lat="51.902227" lon="-1.680669"><ele>129.92</ele><time>2010-09-15T09:40:56Z</time></trkpt><trkpt lat="51.902226" lon="-1.680719"><ele>129.43</ele><time>2010-09-15T09:41:09Z</time></trkpt><trkpt lat="51.902231" lon="-1.680786"><ele>129.43</ele><time>2010-09-15T09:41:22Z</time></trkpt><trkpt lat="51.902221" lon="-1.680833"><ele>128.95</ele><time>2010-09-15T09:41:36Z</time></trkpt><trkpt lat="51.902218" lon="-1.680808"><ele>127.99</ele><time>2010-09-15T09:42:40Z</time></trkpt><trkpt lat="51.902236" lon="-1.680942"><ele>127.99</ele><time>2010-09-15T09:42:53Z</time></trkpt><trkpt lat="51.902244" lon="-1.681163"><ele>128.47</ele><time>2010-09-15T09:43:09Z</time></trkpt><trkpt lat="51.902255" lon="-1.681393"><ele>128.95</ele><time>2010-09-15T09:43:24Z</time></trkpt><trkpt lat="51.902263" lon="-1.681735"><ele>129.43</ele><time>2010-09-15T09:43:42Z</time></trkpt><trkpt lat="51.902267" lon="-1.682091"><ele>129.92</ele><time>2010-09-15T09:44:01Z</time></trkpt><trkpt lat="51.902261" lon="-1.682412"><ele>130.40</ele><time>2010-09-15T09:44:19Z</time></trkpt><trkpt lat="51.902237" lon="-1.682751"><ele>130.40</ele><time>2010-09-15T09:44:38Z</time></trkpt><trkpt lat="51.902225" lon="-1.682867"><ele>130.40</ele><time>2010-09-15T09:44:44Z</time></trkpt><trkpt lat="51.902209" lon="-1.682939"><ele>130.40</ele><time>2010-09-15T09:44:48Z</time></trkpt><trkpt lat="51.902148" lon="-1.683352"><ele>130.40</ele><time>2010-09-15T09:45:10Z</time></trkpt><trkpt lat="51.902131" lon="-1.683471"><ele>130.40</ele><time>2010-09-15T09:45:25Z</time></trkpt><trkpt lat="51.902050" lon="-1.683830"><ele>130.88</ele><time>2010-09-15T09:45:44Z</time></trkpt><trkpt lat="51.902018" lon="-1.684065"><ele>130.88</ele><time>2010-09-15T09:45:57Z</time></trkpt><trkpt lat="51.902020" lon="-1.684129"><ele>130.40</ele><time>2010-09-15T09:46:05Z</time></trkpt><trkpt lat="51.901965" lon="-1.684439"><ele>128.95</ele><time>2010-09-15T09:46:22Z</time></trkpt><trkpt lat="51.901930" lon="-1.684662"><ele>131.36</ele><time>2010-09-15T09:46:36Z</time></trkpt><trkpt lat="51.901922" lon="-1.684740"><ele>131.84</ele><time>2010-09-15T09:46:41Z</time></trkpt><trkpt lat="51.901873" lon="-1.685032"><ele>133.76</ele><time>2010-09-15T09:46:59Z</time></trkpt><trkpt lat="51.901844" lon="-1.685253"><ele>134.72</ele><time>2010-09-15T09:47:14Z</time></trkpt><trkpt lat="51.901821" lon="-1.685480"><ele>136.64</ele><time>2010-09-15T09:47:29Z</time></trkpt><trkpt lat="51.901793" lon="-1.685660"><ele>137.13</ele><time>2010-09-15T09:47:41Z</time></trkpt><trkpt lat="51.901772" lon="-1.685868"><ele>137.61</ele><time>2010-09-15T09:47:55Z</time></trkpt><trkpt lat="51.901770" lon="-1.685883"><ele>137.61</ele><time>2010-09-15T09:47:56Z</time></trkpt><trkpt lat="51.901772" lon="-1.685943"><ele>137.61</ele><time>2010-09-15T09:48:00Z</time></trkpt><trkpt lat="51.901756" lon="-1.686139"><ele>138.09</ele><time>2010-09-15T09:48:13Z</time></trkpt><trkpt lat="51.901742" lon="-1.686253"><ele>137.61</ele><time>2010-09-15T09:48:20Z</time></trkpt><trkpt lat="51.901726" lon="-1.686326"><ele>138.57</ele><time>2010-09-15T09:48:25Z</time></trkpt><trkpt lat="51.901646" lon="-1.686497"><ele>141.45</ele><time>2010-09-15T09:48:42Z</time></trkpt><trkpt lat="51.901632" lon="-1.686561"><ele>141.93</ele><time>2010-09-15T09:49:07Z</time></trkpt><trkpt lat="51.901632" lon="-1.686657"><ele>141.93</ele><time>2010-09-15T09:49:54Z</time></trkpt><trkpt lat="51.901681" lon="-1.686857"><ele>142.89</ele><time>2010-09-15T09:50:06Z</time></trkpt><trkpt lat="51.901744" lon="-1.687079"><ele>142.89</ele><time>2010-09-15T09:50:20Z</time></trkpt><trkpt lat="51.901772" lon="-1.687104"><ele>139.05</ele><time>2010-09-15T09:50:44Z</time></trkpt><trkpt lat="51.901775" lon="-1.687104"><ele>139.53</ele><time>2010-09-15T09:51:48Z</time></trkpt><trkpt lat="51.901777" lon="-1.687112"><ele>139.05</ele><time>2010-09-15T09:52:00Z</time></trkpt><trkpt lat="51.901819" lon="-1.687468"><ele>142.41</ele><time>2010-09-15T09:52:17Z</time></trkpt><trkpt lat="51.901840" lon="-1.687942"><ele>147.70</ele><time>2010-09-15T09:52:39Z</time></trkpt><trkpt lat="51.901859" lon="-1.688205"><ele>149.14</ele><time>2010-09-15T09:52:52Z</time></trkpt><trkpt lat="51.901853" lon="-1.688517"><ele>152.99</ele><time>2010-09-15T09:53:07Z</time></trkpt><trkpt lat="51.901819" lon="-1.688932"><ele>156.35</ele><time>2010-09-15T09:53:27Z</time></trkpt><trkpt lat="51.901721" lon="-1.689389"><ele>159.72</ele><time>2010-09-15T09:53:49Z</time></trkpt><trkpt lat="51.901630" lon="-1.689879"><ele>160.68</ele><time>2010-09-15T09:54:12Z</time></trkpt><trkpt lat="51.901574" lon="-1.690212"><ele>161.16</ele><time>2010-09-15T09:54:29Z</time></trkpt><trkpt lat="51.901575" lon="-1.690332"><ele>160.68</ele><time>2010-09-15T09:54:35Z</time></trkpt><trkpt lat="51.901557" lon="-1.690445"><ele>161.16</ele><time>2010-09-15T09:54:41Z</time></trkpt><trkpt lat="51.901546" lon="-1.690524"><ele>161.64</ele><time>2010-09-15T09:54:45Z</time></trkpt><trkpt lat="51.901557" lon="-1.690618"><ele>162.60</ele><time>2010-09-15T09:54:50Z</time></trkpt><trkpt lat="51.901754" lon="-1.690813"><ele>161.64</ele><time>2010-09-15T09:55:08Z</time></trkpt><trkpt lat="51.901801" lon="-1.690878"><ele>162.60</ele><time>2010-09-15T09:55:25Z</time></trkpt><trkpt lat="51.901873" lon="-1.691041"><ele>164.52</ele><time>2010-09-15T09:55:40Z</time></trkpt><trkpt lat="51.901907" lon="-1.691447"><ele>165.48</ele><time>2010-09-15T09:56:00Z</time></trkpt><trkpt lat="51.901980" lon="-1.691749"><ele>166.93</ele><time>2010-09-15T09:56:18Z</time></trkpt><trkpt lat="51.902006" lon="-1.691806"><ele>167.89</ele><time>2010-09-15T09:56:22Z</time></trkpt><trkpt lat="51.902090" lon="-1.691963"><ele>166.93</ele><time>2010-09-15T09:56:34Z</time></trkpt><trkpt lat="51.902051" lon="-1.692031"><ele>168.37</ele><time>2010-09-15T09:56:49Z</time></trkpt><trkpt lat="51.902118" lon="-1.692041"><ele>165.96</ele><time>2010-09-15T09:57:37Z</time></trkpt><trkpt lat="51.902127" lon="-1.692056"><ele>163.56</ele><time>2010-09-15T09:58:01Z</time></trkpt><trkpt lat="51.902119" lon="-1.692059"><ele>159.72</ele><time>2010-09-15T09:59:02Z</time></trkpt><trkpt lat="51.902111" lon="-1.692055"><ele>158.27</ele><time>2010-09-15T10:01:31Z</time></trkpt><trkpt lat="51.902100" lon="-1.692056"><ele>157.79</ele><time>2010-09-15T10:02:08Z</time></trkpt><trkpt lat="51.902098" lon="-1.692041"><ele>157.79</ele><time>2010-09-15T10:02:34Z</time></trkpt><trkpt lat="51.902099" lon="-1.692040"><ele>157.31</ele><time>2010-09-15T10:03:25Z</time></trkpt><trkpt lat="51.902102" lon="-1.692037"><ele>157.31</ele><time>2010-09-15T10:05:21Z</time></trkpt><trkpt lat="51.902107" lon="-1.692038"><ele>157.31</ele><time>2010-09-15T10:06:39Z</time></trkpt><trkpt lat="51.902107" lon="-1.692039"><ele>157.31</ele><time>2010-09-15T10:07:54Z</time></trkpt><trkpt lat="51.902105" lon="-1.692048"><ele>154.43</ele><time>2010-09-15T10:11:53Z</time></trkpt><trkpt lat="51.902077" lon="-1.692042"><ele>154.43</ele><time>2010-09-15T10:12:19Z</time></trkpt><trkpt lat="51.902074" lon="-1.692027"><ele>155.87</ele><time>2010-09-15T10:12:50Z</time></trkpt><trkpt lat="51.902066" lon="-1.692008"><ele>157.79</ele><time>2010-09-15T10:13:08Z</time></trkpt><trkpt lat="51.902020" lon="-1.691703"><ele>161.64</ele><time>2010-09-15T10:13:24Z</time></trkpt><trkpt lat="51.901954" lon="-1.691278"><ele>160.68</ele><time>2010-09-15T10:13:43Z</time></trkpt><trkpt lat="51.901903" lon="-1.691000"><ele>159.24</ele><time>2010-09-15T10:14:00Z</time></trkpt><trkpt lat="51.901886" lon="-1.690828"><ele>155.87</ele><time>2010-09-15T10:14:15Z</time></trkpt><trkpt lat="51.901832" lon="-1.690768"><ele>157.31</ele><time>2010-09-15T10:14:28Z</time></trkpt><trkpt lat="51.901788" lon="-1.690638"><ele>160.68</ele><time>2010-09-15T10:14:38Z</time></trkpt><trkpt lat="51.901811" lon="-1.690616"><ele>159.24</ele><time>2010-09-15T10:14:50Z</time></trkpt><trkpt lat="51.901814" lon="-1.690637"><ele>158.75</ele><time>2010-09-15T10:14:52Z</time></trkpt><trkpt lat="51.901735" lon="-1.690757"><ele>156.83</ele><time>2010-09-15T10:15:06Z</time></trkpt><trkpt lat="51.901680" lon="-1.690808"><ele>159.24</ele><time>2010-09-15T10:15:21Z</time></trkpt><trkpt lat="51.901768" lon="-1.690672"><ele>162.60</ele><time>2010-09-15T10:15:51Z</time></trkpt><trkpt lat="51.901813" lon="-1.690616"><ele>162.60</ele><time>2010-09-15T10:16:50Z</time></trkpt><trkpt lat="51.901773" lon="-1.690607"><ele>161.64</ele><time>2010-09-15T10:17:12Z</time></trkpt><trkpt lat="51.901834" lon="-1.690544"><ele>163.08</ele><time>2010-09-15T10:17:46Z</time></trkpt><trkpt lat="51.901919" lon="-1.690482"><ele>162.60</ele><time>2010-09-15T10:18:09Z</time></trkpt><trkpt lat="51.901975" lon="-1.690436"><ele>161.64</ele><time>2010-09-15T10:18:31Z</time></trkpt><trkpt lat="51.901884" lon="-1.690498"><ele>162.12</ele><time>2010-09-15T10:19:36Z</time></trkpt><trkpt lat="51.901872" lon="-1.690516"><ele>165.00</ele><time>2010-09-15T10:19:57Z</time></trkpt><trkpt lat="51.901833" lon="-1.690556"><ele>165.48</ele><time>2010-09-15T10:20:00Z</time></trkpt><trkpt lat="51.901760" lon="-1.690788"><ele>164.52</ele><time>2010-09-15T10:20:14Z</time></trkpt><trkpt lat="51.901777" lon="-1.690840"><ele>159.72</ele><time>2010-09-15T10:20:27Z</time></trkpt><trkpt lat="51.901773" lon="-1.690831"><ele>159.24</ele><time>2010-09-15T10:20:29Z</time></trkpt><trkpt lat="51.901727" lon="-1.690693"><ele>158.27</ele><time>2010-09-15T10:20:41Z</time></trkpt><trkpt lat="51.901530" lon="-1.690666"><ele>154.91</ele><time>2010-09-15T10:20:56Z</time></trkpt><trkpt lat="51.901539" lon="-1.690462"><ele>153.95</ele><time>2010-09-15T10:21:08Z</time></trkpt><trkpt lat="51.901632" lon="-1.690209"><ele>154.43</ele><time>2010-09-15T10:21:23Z</time></trkpt><trkpt lat="51.901633" lon="-1.690216"><ele>158.75</ele><time>2010-09-15T10:21:35Z</time></trkpt><trkpt lat="51.901610" lon="-1.690153"><ele>158.27</ele><time>2010-09-15T10:21:55Z</time></trkpt><trkpt lat="51.901711" lon="-1.689892"><ele>154.43</ele><time>2010-09-15T10:22:11Z</time></trkpt><trkpt lat="51.901807" lon="-1.689605"><ele>146.74</ele><time>2010-09-15T10:22:29Z</time></trkpt><trkpt lat="51.901825" lon="-1.689328"><ele>153.95</ele><time>2010-09-15T10:22:43Z</time></trkpt><trkpt lat="51.901835" lon="-1.689161"><ele>155.87</ele><time>2010-09-15T10:22:52Z</time></trkpt><trkpt lat="51.901789" lon="-1.689047"><ele>155.39</ele><time>2010-09-15T10:23:07Z</time></trkpt><trkpt lat="51.901713" lon="-1.688982"><ele>154.43</ele><time>2010-09-15T10:23:14Z</time></trkpt><trkpt lat="51.901464" lon="-1.688862"><ele>152.51</ele><time>2010-09-15T10:23:37Z</time></trkpt><trkpt lat="51.901227" lon="-1.688747"><ele>152.51</ele><time>2010-09-15T10:23:59Z</time></trkpt><trkpt lat="51.900982" lon="-1.688673"><ele>152.03</ele><time>2010-09-15T10:24:21Z</time></trkpt><trkpt lat="51.900706" lon="-1.688753"><ele>149.62</ele><time>2010-09-15T10:24:46Z</time></trkpt><trkpt lat="51.900489" lon="-1.688934"><ele>146.74</ele><time>2010-09-15T10:25:09Z</time></trkpt><trkpt lat="51.900308" lon="-1.689124"><ele>144.34</ele><time>2010-09-15T10:25:29Z</time></trkpt><trkpt lat="51.900155" lon="-1.689294"><ele>143.37</ele><time>2010-09-15T10:25:47Z</time></trkpt><trkpt lat="51.900055" lon="-1.689369"><ele>142.41</ele><time>2010-09-15T10:26:02Z</time></trkpt><trkpt lat="51.899814" lon="-1.689378"><ele>139.53</ele><time>2010-09-15T10:26:24Z</time></trkpt><trkpt lat="51.899780" lon="-1.689442"><ele>139.53</ele><time>2010-09-15T10:26:35Z</time></trkpt><trkpt lat="51.899586" lon="-1.689412"><ele>142.41</ele><time>2010-09-15T10:26:52Z</time></trkpt><trkpt lat="51.899353" lon="-1.689371"><ele>140.97</ele><time>2010-09-15T10:27:12Z</time></trkpt><trkpt lat="51.899131" lon="-1.689278"><ele>140.97</ele><time>2010-09-15T10:27:31Z</time></trkpt><trkpt lat="51.899088" lon="-1.689276"><ele>140.49</ele><time>2010-09-15T10:27:34Z</time></trkpt><trkpt lat="51.898939" lon="-1.689474"><ele>140.49</ele><time>2010-09-15T10:27:51Z</time></trkpt><trkpt lat="51.898940" lon="-1.689474"><ele>140.97</ele><time>2010-09-15T10:28:03Z</time></trkpt><trkpt lat="51.898916" lon="-1.689491"><ele>140.49</ele><time>2010-09-15T10:28:07Z</time></trkpt><trkpt lat="51.898728" lon="-1.689507"><ele>139.53</ele><time>2010-09-15T10:28:25Z</time></trkpt><trkpt lat="51.898593" lon="-1.689373"><ele>139.05</ele><time>2010-09-15T10:28:42Z</time></trkpt><trkpt lat="51.898496" lon="-1.689290"><ele>138.57</ele><time>2010-09-15T10:28:52Z</time></trkpt><trkpt lat="51.898448" lon="-1.689268"><ele>138.09</ele><time>2010-09-15T10:29:06Z</time></trkpt><trkpt lat="51.898320" lon="-1.689234"><ele>137.13</ele><time>2010-09-15T10:29:22Z</time></trkpt><trkpt lat="51.898296" lon="-1.689255"><ele>136.16</ele><time>2010-09-15T10:29:34Z</time></trkpt><trkpt lat="51.898088" lon="-1.689066"><ele>137.13</ele><time>2010-09-15T10:29:52Z</time></trkpt><trkpt lat="51.897925" lon="-1.688916"><ele>136.16</ele><time>2010-09-15T10:30:07Z</time></trkpt><trkpt lat="51.897769" lon="-1.688787"><ele>136.64</ele><time>2010-09-15T10:30:22Z</time></trkpt><trkpt lat="51.897598" lon="-1.688618"><ele>138.09</ele><time>2010-09-15T10:30:37Z</time></trkpt><trkpt lat="51.897410" lon="-1.688318"><ele>136.16</ele><time>2010-09-15T10:30:59Z</time></trkpt><trkpt lat="51.897221" lon="-1.688177"><ele>135.68</ele><time>2010-09-15T10:31:17Z</time></trkpt><trkpt lat="51.896995" lon="-1.687978"><ele>135.68</ele><time>2010-09-15T10:31:40Z</time></trkpt><trkpt lat="51.896829" lon="-1.687836"><ele>135.68</ele><time>2010-09-15T10:31:57Z</time></trkpt><trkpt lat="51.896635" lon="-1.687661"><ele>135.20</ele><time>2010-09-15T10:32:16Z</time></trkpt><trkpt lat="51.896444" lon="-1.687487"><ele>135.20</ele><time>2010-09-15T10:32:36Z</time></trkpt><trkpt lat="51.896257" lon="-1.687329"><ele>134.24</ele><time>2010-09-15T10:32:55Z</time></trkpt><trkpt lat="51.896050" lon="-1.687219"><ele>133.76</ele><time>2010-09-15T10:33:15Z</time></trkpt><trkpt lat="51.895883" lon="-1.687188"><ele>133.28</ele><time>2010-09-15T10:33:32Z</time></trkpt><trkpt lat="51.895833" lon="-1.687169"><ele>131.36</ele><time>2010-09-15T10:33:48Z</time></trkpt><trkpt lat="51.895791" lon="-1.687200"><ele>130.88</ele><time>2010-09-15T10:34:01Z</time></trkpt><trkpt lat="51.895785" lon="-1.687191"><ele>130.40</ele><time>2010-09-15T10:34:05Z</time></trkpt><trkpt lat="51.895643" lon="-1.687306"><ele>131.84</ele><time>2010-09-15T10:34:23Z</time></trkpt><trkpt lat="51.895568" lon="-1.687367"><ele>131.84</ele><time>2010-09-15T10:34:35Z</time></trkpt><trkpt lat="51.895418" lon="-1.687467"><ele>134.72</ele><time>2010-09-15T10:34:52Z</time></trkpt><trkpt lat="51.895247" lon="-1.687604"><ele>136.64</ele><time>2010-09-15T10:35:10Z</time></trkpt><trkpt lat="51.895107" lon="-1.687733"><ele>137.61</ele><time>2010-09-15T10:35:26Z</time></trkpt><trkpt lat="51.894961" lon="-1.687862"><ele>138.09</ele><time>2010-09-15T10:35:43Z</time></trkpt><trkpt lat="51.894795" lon="-1.687991"><ele>137.61</ele><time>2010-09-15T10:36:00Z</time></trkpt><trkpt lat="51.894599" lon="-1.688182"><ele>137.61</ele><time>2010-09-15T10:36:20Z</time></trkpt><trkpt lat="51.894453" lon="-1.688281"><ele>138.57</ele><time>2010-09-15T10:36:37Z</time></trkpt><trkpt lat="51.894289" lon="-1.688395"><ele>139.05</ele><time>2010-09-15T10:36:54Z</time></trkpt><trkpt lat="51.894158" lon="-1.688504"><ele>140.97</ele><time>2010-09-15T10:37:10Z</time></trkpt><trkpt lat="51.894022" lon="-1.688623"><ele>144.34</ele><time>2010-09-15T10:37:26Z</time></trkpt><trkpt lat="51.893934" lon="-1.688701"><ele>145.30</ele><time>2010-09-15T10:37:38Z</time></trkpt><trkpt lat="51.893818" lon="-1.688766"><ele>148.66</ele><time>2010-09-15T10:37:55Z</time></trkpt><trkpt lat="51.893757" lon="-1.688848"><ele>152.51</ele><time>2010-09-15T10:38:10Z</time></trkpt><trkpt lat="51.893660" lon="-1.688961"><ele>151.06</ele><time>2010-09-15T10:38:25Z</time></trkpt><trkpt lat="51.893635" lon="-1.689023"><ele>149.14</ele><time>2010-09-15T10:38:38Z</time></trkpt><trkpt lat="51.893608" lon="-1.689059"><ele>147.70</ele><time>2010-09-15T10:38:49Z</time></trkpt><trkpt lat="51.893505" lon="-1.689041"><ele>153.47</ele><time>2010-09-15T10:39:03Z</time></trkpt><trkpt lat="51.893465" lon="-1.689012"><ele>155.87</ele><time>2010-09-15T10:39:17Z</time></trkpt><trkpt lat="51.893489" lon="-1.688951"><ele>152.51</ele><time>2010-09-15T10:39:36Z</time></trkpt><trkpt lat="51.893358" lon="-1.688671"><ele>154.91</ele><time>2010-09-15T10:39:55Z</time></trkpt><trkpt lat="51.893300" lon="-1.688596"><ele>156.35</ele><time>2010-09-15T10:40:08Z</time></trkpt><trkpt lat="51.893167" lon="-1.688332"><ele>157.31</ele><time>2010-09-15T10:40:28Z</time></trkpt><trkpt lat="51.893011" lon="-1.688061"><ele>156.83</ele><time>2010-09-15T10:40:48Z</time></trkpt><trkpt lat="51.892973" lon="-1.688004"><ele>157.79</ele><time>2010-09-15T10:41:11Z</time></trkpt><trkpt lat="51.892943" lon="-1.687968"><ele>157.79</ele><time>2010-09-15T10:41:37Z</time></trkpt><trkpt lat="51.892925" lon="-1.687980"><ele>156.35</ele><time>2010-09-15T10:42:15Z</time></trkpt><trkpt lat="51.892745" lon="-1.687766"><ele>156.35</ele><time>2010-09-15T10:42:36Z</time></trkpt><trkpt lat="51.892729" lon="-1.687732"><ele>156.83</ele><time>2010-09-15T10:42:40Z</time></trkpt><trkpt lat="51.892760" lon="-1.687701"><ele>156.35</ele><time>2010-09-15T10:42:44Z</time></trkpt><trkpt lat="51.892885" lon="-1.687550"><ele>152.99</ele><time>2010-09-15T10:43:02Z</time></trkpt><trkpt lat="51.893034" lon="-1.687317"><ele>147.70</ele><time>2010-09-15T10:43:23Z</time></trkpt><trkpt lat="51.893213" lon="-1.687074"><ele>145.30</ele><time>2010-09-15T10:43:44Z</time></trkpt><trkpt lat="51.893357" lon="-1.686829"><ele>142.89</ele><time>2010-09-15T10:44:02Z</time></trkpt><trkpt lat="51.893505" lon="-1.686473"><ele>138.57</ele><time>2010-09-15T10:44:24Z</time></trkpt><trkpt lat="51.893671" lon="-1.686106"><ele>137.13</ele><time>2010-09-15T10:44:46Z</time></trkpt><trkpt lat="51.893844" lon="-1.685705"><ele>136.16</ele><time>2010-09-15T10:45:10Z</time></trkpt><trkpt lat="51.894010" lon="-1.685339"><ele>136.16</ele><time>2010-09-15T10:45:32Z</time></trkpt><trkpt lat="51.894141" lon="-1.684986"><ele>134.72</ele><time>2010-09-15T10:45:52Z</time></trkpt><trkpt lat="51.894258" lon="-1.684664"><ele>136.64</ele><time>2010-09-15T10:46:11Z</time></trkpt><trkpt lat="51.894342" lon="-1.684350"><ele>135.68</ele><time>2010-09-15T10:46:30Z</time></trkpt><trkpt lat="51.894435" lon="-1.684038"><ele>134.72</ele><time>2010-09-15T10:46:49Z</time></trkpt><trkpt lat="51.894481" lon="-1.683843"><ele>133.28</ele><time>2010-09-15T10:47:01Z</time></trkpt><trkpt lat="51.894398" lon="-1.683705"><ele>131.36</ele><time>2010-09-15T10:47:18Z</time></trkpt><trkpt lat="51.894396" lon="-1.683710"><ele>131.84</ele><time>2010-09-15T10:47:42Z</time></trkpt><trkpt lat="51.894392" lon="-1.683730"><ele>131.36</ele><time>2010-09-15T10:48:19Z</time></trkpt><trkpt lat="51.894393" lon="-1.683753"><ele>130.88</ele><time>2010-09-15T10:48:21Z</time></trkpt><trkpt lat="51.894403" lon="-1.683771"><ele>129.92</ele><time>2010-09-15T10:48:24Z</time></trkpt><trkpt lat="51.894427" lon="-1.683771"><ele>128.47</ele><time>2010-09-15T10:48:28Z</time></trkpt><trkpt lat="51.894555" lon="-1.683535"><ele>127.51</ele><time>2010-09-15T10:48:41Z</time></trkpt><trkpt lat="51.894691" lon="-1.682970"><ele>122.22</ele><time>2010-09-15T10:49:07Z</time></trkpt><trkpt lat="51.894876" lon="-1.682465"><ele>121.26</ele><time>2010-09-15T10:49:32Z</time></trkpt><trkpt lat="51.895017" lon="-1.682112"><ele>123.19</ele><time>2010-09-15T10:49:51Z</time></trkpt><trkpt lat="51.895207" lon="-1.681650"><ele>120.30</ele><time>2010-09-15T10:50:14Z</time></trkpt><trkpt lat="51.895475" lon="-1.681040"><ele>115.98</ele><time>2010-09-15T10:50:45Z</time></trkpt><trkpt lat="51.895723" lon="-1.680643"><ele>119.34</ele><time>2010-09-15T10:51:08Z</time></trkpt><trkpt lat="51.896033" lon="-1.680102"><ele>123.19</ele><time>2010-09-15T10:51:38Z</time></trkpt><trkpt lat="51.896223" lon="-1.679716"><ele>125.11</ele><time>2010-09-15T10:51:57Z</time></trkpt><trkpt lat="51.896418" lon="-1.679234"><ele>122.71</ele><time>2010-09-15T10:52:22Z</time></trkpt><trkpt lat="51.896592" lon="-1.678453"><ele>117.90</ele><time>2010-09-15T10:52:59Z</time></trkpt><trkpt lat="51.896749" lon="-1.677838"><ele>118.38</ele><time>2010-09-15T10:53:27Z</time></trkpt><trkpt lat="51.896947" lon="-1.677162"><ele>118.38</ele><time>2010-09-15T10:53:58Z</time></trkpt><trkpt lat="51.897108" lon="-1.676716"><ele>127.51</ele><time>2010-09-15T10:54:19Z</time></trkpt><trkpt lat="51.897165" lon="-1.676367"><ele>124.15</ele><time>2010-09-15T10:54:38Z</time></trkpt><trkpt lat="51.897198" lon="-1.676164"><ele>122.22</ele><time>2010-09-15T10:54:51Z</time></trkpt><trkpt lat="51.897218" lon="-1.675875"><ele>123.67</ele><time>2010-09-15T10:55:07Z</time></trkpt><trkpt lat="51.897164" lon="-1.675484"><ele>125.11</ele><time>2010-09-15T10:55:28Z</time></trkpt><trkpt lat="51.897156" lon="-1.675408"><ele>124.63</ele><time>2010-09-15T10:55:32Z</time></trkpt><trkpt lat="51.897105" lon="-1.675049"><ele>124.63</ele><time>2010-09-15T10:55:51Z</time></trkpt><trkpt lat="51.897047" lon="-1.674674"><ele>124.63</ele><time>2010-09-15T10:56:11Z</time></trkpt><trkpt lat="51.896973" lon="-1.674341"><ele>123.67</ele><time>2010-09-15T10:56:30Z</time></trkpt><trkpt lat="51.896888" lon="-1.674015"><ele>124.15</ele><time>2010-09-15T10:56:50Z</time></trkpt><trkpt lat="51.896892" lon="-1.673989"><ele>123.67</ele><time>2010-09-15T10:56:54Z</time></trkpt><trkpt lat="51.896929" lon="-1.673921"><ele>121.74</ele><time>2010-09-15T10:57:17Z</time></trkpt><trkpt lat="51.896941" lon="-1.673896"><ele>120.78</ele><time>2010-09-15T10:57:41Z</time></trkpt><trkpt lat="51.897070" lon="-1.673693"><ele>120.30</ele><time>2010-09-15T10:57:59Z</time></trkpt><trkpt lat="51.897189" lon="-1.673504"><ele>119.34</ele><time>2010-09-15T10:58:14Z</time></trkpt><trkpt lat="51.897346" lon="-1.673284"><ele>119.34</ele><time>2010-09-15T10:58:33Z</time></trkpt><trkpt lat="51.897512" lon="-1.673037"><ele>119.34</ele><time>2010-09-15T10:58:51Z</time></trkpt><trkpt lat="51.897587" lon="-1.672721"><ele>118.86</ele><time>2010-09-15T10:59:10Z</time></trkpt><trkpt lat="51.897630" lon="-1.672454"><ele>119.34</ele><time>2010-09-15T10:59:25Z</time></trkpt><trkpt lat="51.897673" lon="-1.672107"><ele>119.82</ele><time>2010-09-15T10:59:44Z</time></trkpt><trkpt lat="51.897696" lon="-1.671798"><ele>118.38</ele><time>2010-09-15T11:00:01Z</time></trkpt><trkpt lat="51.897705" lon="-1.671554"><ele>115.98</ele><time>2010-09-15T11:00:16Z</time></trkpt><trkpt lat="51.897755" lon="-1.671279"><ele>117.42</ele><time>2010-09-15T11:00:33Z</time></trkpt><trkpt lat="51.897781" lon="-1.670991"><ele>117.42</ele><time>2010-09-15T11:00:49Z</time></trkpt><trkpt lat="51.897826" lon="-1.670673"><ele>119.34</ele><time>2010-09-15T11:01:06Z</time></trkpt><trkpt lat="51.897869" lon="-1.670352"><ele>118.86</ele><time>2010-09-15T11:01:25Z</time></trkpt><trkpt lat="51.897894" lon="-1.670122"><ele>117.90</ele><time>2010-09-15T11:01:39Z</time></trkpt><trkpt lat="51.897926" lon="-1.669825"><ele>117.42</ele><time>2010-09-15T11:01:56Z</time></trkpt><trkpt lat="51.897933" lon="-1.669504"><ele>116.46</ele><time>2010-09-15T11:02:15Z</time></trkpt><trkpt lat="51.897972" lon="-1.669312"><ele>115.98</ele><time>2010-09-15T11:02:30Z</time></trkpt><trkpt lat="51.898001" lon="-1.669191"><ele>117.90</ele><time>2010-09-15T11:02:46Z</time></trkpt><trkpt lat="51.898047" lon="-1.669062"><ele>116.94</ele><time>2010-09-15T11:03:01Z</time></trkpt><trkpt lat="51.898038" lon="-1.668865"><ele>115.50</ele><time>2010-09-15T11:03:14Z</time></trkpt><trkpt lat="51.898017" lon="-1.668726"><ele>115.50</ele><time>2010-09-15T11:03:31Z</time></trkpt><trkpt lat="51.897945" lon="-1.668438"><ele>114.05</ele><time>2010-09-15T11:03:48Z</time></trkpt><trkpt lat="51.897934" lon="-1.668323"><ele>114.53</ele><time>2010-09-15T11:03:55Z</time></trkpt><trkpt lat="51.897922" lon="-1.668057"><ele>115.50</ele><time>2010-09-15T11:04:10Z</time></trkpt><trkpt lat="51.897942" lon="-1.667738"><ele>115.01</ele><time>2010-09-15T11:04:27Z</time></trkpt><trkpt lat="51.897977" lon="-1.667437"><ele>115.01</ele><time>2010-09-15T11:04:44Z</time></trkpt><trkpt lat="51.897965" lon="-1.667172"><ele>112.61</ele><time>2010-09-15T11:05:00Z</time></trkpt><trkpt lat="51.898015" lon="-1.666830"><ele>113.57</ele><time>2010-09-15T11:05:20Z</time></trkpt><trkpt lat="51.897979" lon="-1.666514"><ele>113.57</ele><time>2010-09-15T11:05:36Z</time></trkpt><trkpt lat="51.897967" lon="-1.666190"><ele>115.98</ele><time>2010-09-15T11:05:53Z</time></trkpt><trkpt lat="51.897915" lon="-1.665988"><ele>115.50</ele><time>2010-09-15T11:06:05Z</time></trkpt><trkpt lat="51.897866" lon="-1.665825"><ele>114.53</ele><time>2010-09-15T11:06:14Z</time></trkpt><trkpt lat="51.897812" lon="-1.665526"><ele>117.42</ele><time>2010-09-15T11:06:33Z</time></trkpt><trkpt lat="51.897758" lon="-1.665289"><ele>116.46</ele><time>2010-09-15T11:06:48Z</time></trkpt><trkpt lat="51.897686" lon="-1.665043"><ele>116.46</ele><time>2010-09-15T11:07:04Z</time></trkpt><trkpt lat="51.897611" lon="-1.664788"><ele>115.01</ele><time>2010-09-15T11:07:20Z</time></trkpt><trkpt lat="51.897543" lon="-1.664478"><ele>114.53</ele><time>2010-09-15T11:07:38Z</time></trkpt><trkpt lat="51.897503" lon="-1.664339"><ele>113.57</ele><time>2010-09-15T11:07:46Z</time></trkpt><trkpt lat="51.897482" lon="-1.664048"><ele>115.98</ele><time>2010-09-15T11:08:03Z</time></trkpt><trkpt lat="51.897466" lon="-1.663922"><ele>116.46</ele><time>2010-09-15T11:08:10Z</time></trkpt><trkpt lat="51.897448" lon="-1.663837"><ele>117.42</ele><time>2010-09-15T11:08:15Z</time></trkpt><trkpt lat="51.897433" lon="-1.663526"><ele>117.90</ele><time>2010-09-15T11:08:33Z</time></trkpt><trkpt lat="51.897444" lon="-1.663358"><ele>115.50</ele><time>2010-09-15T11:08:44Z</time></trkpt><trkpt lat="51.897465" lon="-1.663067"><ele>112.13</ele><time>2010-09-15T11:09:00Z</time></trkpt><trkpt lat="51.897526" lon="-1.662744"><ele>112.61</ele><time>2010-09-15T11:09:19Z</time></trkpt><trkpt lat="51.897629" lon="-1.662403"><ele>114.05</ele><time>2010-09-15T11:09:40Z</time></trkpt><trkpt lat="51.897637" lon="-1.662299"><ele>113.09</ele><time>2010-09-15T11:09:55Z</time></trkpt><trkpt lat="51.897691" lon="-1.662066"><ele>111.65</ele><time>2010-09-15T11:10:11Z</time></trkpt><trkpt lat="51.897688" lon="-1.661722"><ele>111.65</ele><time>2010-09-15T11:10:30Z</time></trkpt><trkpt lat="51.897645" lon="-1.661343"><ele>112.61</ele><time>2010-09-15T11:10:50Z</time></trkpt><trkpt lat="51.897615" lon="-1.661037"><ele>114.05</ele><time>2010-09-15T11:11:08Z</time></trkpt><trkpt lat="51.897572" lon="-1.660877"><ele>115.50</ele><time>2010-09-15T11:11:25Z</time></trkpt><trkpt lat="51.897592" lon="-1.660838"><ele>113.57</ele><time>2010-09-15T11:11:51Z</time></trkpt><trkpt lat="51.897603" lon="-1.660806"><ele>113.57</ele><time>2010-09-15T11:11:56Z</time></trkpt><trkpt lat="51.897625" lon="-1.660519"><ele>112.61</ele><time>2010-09-15T11:12:13Z</time></trkpt><trkpt lat="51.897578" lon="-1.660113"><ele>112.61</ele><time>2010-09-15T11:12:34Z</time></trkpt><trkpt lat="51.897519" lon="-1.659700"><ele>113.09</ele><time>2010-09-15T11:12:54Z</time></trkpt><trkpt lat="51.897471" lon="-1.659274"><ele>113.09</ele><time>2010-09-15T11:13:15Z</time></trkpt><trkpt lat="51.897442" lon="-1.658908"><ele>113.57</ele><time>2010-09-15T11:13:34Z</time></trkpt><trkpt lat="51.897428" lon="-1.658474"><ele>112.61</ele><time>2010-09-15T11:13:56Z</time></trkpt><trkpt lat="51.897459" lon="-1.658123"><ele>112.13</ele><time>2010-09-15T11:14:15Z</time></trkpt><trkpt lat="51.897439" lon="-1.657806"><ele>112.61</ele><time>2010-09-15T11:14:32Z</time></trkpt><trkpt lat="51.897464" lon="-1.657422"><ele>113.57</ele><time>2010-09-15T11:14:52Z</time></trkpt><trkpt lat="51.897500" lon="-1.657097"><ele>113.09</ele><time>2010-09-15T11:15:10Z</time></trkpt><trkpt lat="51.897518" lon="-1.656787"><ele>113.09</ele><time>2010-09-15T11:15:25Z</time></trkpt><trkpt lat="51.897568" lon="-1.656332"><ele>112.13</ele><time>2010-09-15T11:15:48Z</time></trkpt><trkpt lat="51.897610" lon="-1.655924"><ele>111.65</ele><time>2010-09-15T11:16:10Z</time></trkpt><trkpt lat="51.897653" lon="-1.655535"><ele>113.09</ele><time>2010-09-15T11:16:31Z</time></trkpt><trkpt lat="51.897666" lon="-1.655260"><ele>111.65</ele><time>2010-09-15T11:16:47Z</time></trkpt><trkpt lat="51.897696" lon="-1.654913"><ele>111.17</ele><time>2010-09-15T11:17:06Z</time></trkpt><trkpt lat="51.897711" lon="-1.654808"><ele>112.61</ele><time>2010-09-15T11:17:20Z</time></trkpt><trkpt lat="51.897772" lon="-1.654633"><ele>112.61</ele><time>2010-09-15T11:17:40Z</time></trkpt><trkpt lat="51.897920" lon="-1.654273"><ele>112.13</ele><time>2010-09-15T11:18:02Z</time></trkpt><trkpt lat="51.898060" lon="-1.653962"><ele>110.69</ele><time>2010-09-15T11:18:22Z</time></trkpt><trkpt lat="51.898132" lon="-1.653795"><ele>111.17</ele><time>2010-09-15T11:18:33Z</time></trkpt><trkpt lat="51.898336" lon="-1.653319"><ele>112.13</ele><time>2010-09-15T11:18:56Z</time></trkpt><trkpt lat="51.898640" lon="-1.652679"><ele>112.61</ele><time>2010-09-15T11:19:25Z</time></trkpt><trkpt lat="51.898913" lon="-1.652098"><ele>113.09</ele><time>2010-09-15T11:19:52Z</time></trkpt><trkpt lat="51.899122" lon="-1.651669"><ele>112.13</ele><time>2010-09-15T11:20:14Z</time></trkpt><trkpt lat="51.899354" lon="-1.651160"><ele>113.57</ele><time>2010-09-15T11:20:39Z</time></trkpt><trkpt lat="51.899478" lon="-1.650896"><ele>113.57</ele><time>2010-09-15T11:20:53Z</time></trkpt><trkpt lat="51.899478" lon="-1.650789"><ele>112.13</ele><time>2010-09-15T11:21:03Z</time></trkpt><trkpt lat="51.899475" lon="-1.650792"><ele>112.13</ele><time>2010-09-15T11:21:05Z</time></trkpt><trkpt lat="51.899678" lon="-1.650807"><ele>106.84</ele><time>2010-09-15T11:21:23Z</time></trkpt><trkpt lat="51.899691" lon="-1.650813"><ele>106.84</ele><time>2010-09-15T11:21:32Z</time></trkpt><trkpt lat="51.899527" lon="-1.650807"><ele>109.25</ele><time>2010-09-15T11:21:40Z</time></trkpt><trkpt lat="51.899501" lon="-1.650832"><ele>110.69</ele><time>2010-09-15T11:21:46Z</time></trkpt><trkpt lat="51.899701" lon="-1.650776"><ele>109.25</ele><time>2010-09-15T11:22:06Z</time></trkpt><trkpt lat="51.899700" lon="-1.650776"><ele>109.25</ele><time>2010-09-15T11:22:08Z</time></trkpt><trkpt lat="51.899698" lon="-1.650764"><ele>108.77</ele><time>2010-09-15T11:22:10Z</time></trkpt><trkpt lat="51.899671" lon="-1.650696"><ele>107.32</ele><time>2010-09-15T11:22:15Z</time></trkpt><trkpt lat="51.899616" lon="-1.650603"><ele>106.84</ele><time>2010-09-15T11:22:24Z</time></trkpt><trkpt lat="51.899572" lon="-1.650523"><ele>105.40</ele><time>2010-09-15T11:22:37Z</time></trkpt><trkpt lat="51.899572" lon="-1.650200"><ele>108.29</ele><time>2010-09-15T11:22:53Z</time></trkpt><trkpt lat="51.899581" lon="-1.649801"><ele>110.69</ele><time>2010-09-15T11:23:13Z</time></trkpt><trkpt lat="51.899570" lon="-1.649479"><ele>113.09</ele><time>2010-09-15T11:23:30Z</time></trkpt><trkpt lat="51.899574" lon="-1.649224"><ele>114.53</ele><time>2010-09-15T11:23:45Z</time></trkpt><trkpt lat="51.899560" lon="-1.648912"><ele>115.01</ele><time>2010-09-15T11:24:02Z</time></trkpt><trkpt lat="51.899553" lon="-1.648557"><ele>115.98</ele><time>2010-09-15T11:24:20Z</time></trkpt><trkpt lat="51.899548" lon="-1.648301"><ele>116.94</ele><time>2010-09-15T11:24:35Z</time></trkpt><trkpt lat="51.899560" lon="-1.648207"><ele>118.38</ele><time>2010-09-15T11:24:46Z</time></trkpt><trkpt lat="51.899541" lon="-1.648114"><ele>118.38</ele><time>2010-09-15T11:25:03Z</time></trkpt><trkpt lat="51.899541" lon="-1.648115"><ele>118.38</ele><time>2010-09-15T11:25:08Z</time></trkpt><trkpt lat="51.899612" lon="-1.647792"><ele>117.90</ele><time>2010-09-15T11:25:27Z</time></trkpt><trkpt lat="51.899709" lon="-1.647402"><ele>118.86</ele><time>2010-09-15T11:25:48Z</time></trkpt><trkpt lat="51.899767" lon="-1.647142"><ele>119.82</ele><time>2010-09-15T11:26:04Z</time></trkpt><trkpt lat="51.899791" lon="-1.647054"><ele>116.94</ele><time>2010-09-15T11:26:18Z</time></trkpt><trkpt lat="51.899792" lon="-1.647043"><ele>115.98</ele><time>2010-09-15T11:26:20Z</time></trkpt><trkpt lat="51.899893" lon="-1.646827"><ele>116.94</ele><time>2010-09-15T11:26:38Z</time></trkpt><trkpt lat="51.899917" lon="-1.646784"><ele>117.42</ele><time>2010-09-15T11:26:52Z</time></trkpt><trkpt lat="51.899982" lon="-1.646653"><ele>116.46</ele><time>2010-09-15T11:27:06Z</time></trkpt><trkpt lat="51.900069" lon="-1.646484"><ele>115.98</ele><time>2010-09-15T11:27:21Z</time></trkpt><trkpt lat="51.900065" lon="-1.646447"><ele>116.94</ele><time>2010-09-15T11:27:34Z</time></trkpt><trkpt lat="51.900164" lon="-1.646283"><ele>116.46</ele><time>2010-09-15T11:27:50Z</time></trkpt><trkpt lat="51.900267" lon="-1.646205"><ele>116.94</ele><time>2010-09-15T11:28:05Z</time></trkpt><trkpt lat="51.900346" lon="-1.646106"><ele>115.98</ele><time>2010-09-15T11:28:17Z</time></trkpt><trkpt lat="51.900460" lon="-1.645917"><ele>118.86</ele><time>2010-09-15T11:28:33Z</time></trkpt><trkpt lat="51.900525" lon="-1.645822"><ele>119.34</ele><time>2010-09-15T11:28:47Z</time></trkpt><trkpt lat="51.900604" lon="-1.645688"><ele>121.74</ele><time>2010-09-15T11:29:02Z</time></trkpt><trkpt lat="51.900670" lon="-1.645531"><ele>120.30</ele><time>2010-09-15T11:29:13Z</time></trkpt><trkpt lat="51.900771" lon="-1.645305"><ele>117.42</ele><time>2010-09-15T11:29:29Z</time></trkpt><trkpt lat="51.900851" lon="-1.645074"><ele>119.34</ele><time>2010-09-15T11:29:45Z</time></trkpt><trkpt lat="51.900923" lon="-1.644864"><ele>115.98</ele><time>2010-09-15T11:30:00Z</time></trkpt><trkpt lat="51.900938" lon="-1.644841"><ele>115.01</ele><time>2010-09-15T11:30:03Z</time></trkpt><trkpt lat="51.900971" lon="-1.644838"><ele>114.53</ele><time>2010-09-15T11:30:07Z</time></trkpt><trkpt lat="51.901133" lon="-1.645031"><ele>115.01</ele><time>2010-09-15T11:30:25Z</time></trkpt><trkpt lat="51.901238" lon="-1.645159"><ele>115.50</ele><time>2010-09-15T11:30:40Z</time></trkpt><trkpt lat="51.901298" lon="-1.645240"><ele>115.50</ele><time>2010-09-15T11:30:51Z</time></trkpt><trkpt lat="51.901350" lon="-1.645376"><ele>119.34</ele><time>2010-09-15T11:31:05Z</time></trkpt><trkpt lat="51.901454" lon="-1.645497"><ele>117.42</ele><time>2010-09-15T11:31:14Z</time></trkpt><trkpt lat="51.901589" lon="-1.645671"><ele>115.50</ele><time>2010-09-15T11:31:28Z</time></trkpt><trkpt lat="51.901808" lon="-1.646032"><ele>114.53</ele><time>2010-09-15T11:31:53Z</time></trkpt><trkpt lat="51.901924" lon="-1.646285"><ele>113.57</ele><time>2010-09-15T11:32:11Z</time></trkpt><trkpt lat="51.902008" lon="-1.646491"><ele>109.73</ele><time>2010-09-15T11:32:25Z</time></trkpt><trkpt lat="51.902027" lon="-1.646549"><ele>110.69</ele><time>2010-09-15T11:32:28Z</time></trkpt><trkpt lat="51.902167" lon="-1.646802"><ele>111.65</ele><time>2010-09-15T11:32:47Z</time></trkpt><trkpt lat="51.902325" lon="-1.647005"><ele>117.42</ele><time>2010-09-15T11:33:04Z</time></trkpt><trkpt lat="51.902566" lon="-1.647204"><ele>123.67</ele><time>2010-09-15T11:33:27Z</time></trkpt><trkpt lat="51.902555" lon="-1.647342"><ele>115.50</ele><time>2010-09-15T11:33:41Z</time></trkpt><trkpt lat="51.902589" lon="-1.647427"><ele>113.09</ele><time>2010-09-15T11:33:46Z</time></trkpt><trkpt lat="51.902667" lon="-1.647564"><ele>110.21</ele><time>2010-09-15T11:34:01Z</time></trkpt><trkpt lat="51.902671" lon="-1.647569"><ele>109.25</ele><time>2010-09-15T11:34:21Z</time></trkpt><trkpt lat="51.902780" lon="-1.647579"><ele>108.29</ele><time>2010-09-15T11:34:36Z</time></trkpt><trkpt lat="51.902840" lon="-1.647790"><ele>107.81</ele><time>2010-09-15T11:34:52Z</time></trkpt><trkpt lat="51.902802" lon="-1.647840"><ele>107.81</ele><time>2010-09-15T11:34:58Z</time></trkpt><trkpt lat="51.902748" lon="-1.647876"><ele>106.84</ele><time>2010-09-15T11:35:03Z</time></trkpt><trkpt lat="51.902558" lon="-1.648065"><ele>105.40</ele><time>2010-09-15T11:35:24Z</time></trkpt><trkpt lat="51.902506" lon="-1.648070"><ele>105.40</ele><time>2010-09-15T11:35:30Z</time></trkpt><trkpt lat="51.902435" lon="-1.648043"><ele>105.40</ele><time>2010-09-15T11:35:38Z</time></trkpt></trkseg></trk></gpx>